sensor_id;sensor_type;location;lat;lon;timestamp;pressure;altitude;pressure_sealevel;temperature;humidity
9281;BME280;4679;47.966;7.958;2023-02-18T07:24:53;98150.88;;;11.93;72.83
9281;BME280;4679;47.966;7.958;2023-02-18T07:26:55;98149.53;;;11.90;72.51
9281;BME280;4679;47.966;7.958;2023-02-18T07:28:57;98159.78;;;11.87;73.27
9281;BME280;4679;47.966;7.958;2023-02-18T07:30:58;98155.28;;;11.87;72.28
9281;BME280;4679;47.966;7.958;2023-02-18T07:33:00;98160.00;;;11.85;73.02
9281;BME280;4679;47.966;7.958;2023-02-18T07:35:02;98163.47;;;11.86;72.41
9281;BME280;4679;47.966;7.958;2023-02-18T07:37:04;98160.59;;;11.87;73.02
9281;BME280;4679;47.966;7.958;2023-02-18T07:39:08;98161.63;;;11.86;73.10
9281;BME280;4679;47.966;7.958;2023-02-18T07:41:16;98165.78;;;11.82;72.50
9281;BME280;4679;47.966;7.958;2023-02-18T07:43:18;98162.91;;;11.84;73.47
9281;BME280;4679;47.966;7.958;2023-02-18T07:45:20;98153.06;;;11.84;72.25
9281;BME280;4679;47.966;7.958;2023-02-18T07:47:22;98158.97;;;11.86;72.58
9281;BME280;4679;47.966;7.958;2023-02-18T07:49:24;98165.91;;;11.87;73.23
9281;BME280;4679;47.966;7.958;2023-02-18T07:51:26;98156.22;;;11.93;72.92
9281;BME280;4679;47.966;7.958;2023-02-18T07:53:27;98150.22;;;11.97;72.47
9281;BME280;4679;47.966;7.958;2023-02-18T07:55:29;98152.22;;;12.02;72.40
9281;BME280;4679;47.966;7.958;2023-02-18T07:57:49;98156.59;;;12.08;72.77
9281;BME280;4679;47.966;7.958;2023-02-18T08:00:01;98161.94;;;12.08;72.61
9281;BME280;4679;47.966;7.958;2023-02-18T08:02:03;98165.16;;;12.10;72.53
9281;BME280;4679;47.966;7.958;2023-02-18T08:04:07;98162.28;;;12.12;72.54
9281;BME280;4679;47.966;7.958;2023-02-18T08:06:19;98153.28;;;12.13;71.67
9281;BME280;4679;47.966;7.958;2023-02-18T08:08:24;98149.56;;;12.14;72.16
9281;BME280;4679;47.966;7.958;2023-02-18T08:10:26;98155.47;;;12.16;72.36
9281;BME280;4679;47.966;7.958;2023-02-18T08:12:27;98153.84;;;12.15;72.30
9281;BME280;4679;47.966;7.958;2023-02-18T08:14:30;98165.53;;;12.14;72.10
9281;BME280;4679;47.966;7.958;2023-02-18T08:16:33;98175.94;;;12.15;72.13
9281;BME280;4679;47.966;7.958;2023-02-18T08:18:34;98157.09;;;12.17;72.13
9281;BME280;4679;47.966;7.958;2023-02-18T08:20:36;98158.94;;;12.16;71.37
9281;BME280;4679;47.966;7.958;2023-02-18T08:22:38;98158.16;;;12.16;72.42
9281;BME280;4679;47.966;7.958;2023-02-18T08:24:40;98168.19;;;12.14;71.67
9281;BME280;4679;47.966;7.958;2023-02-18T08:26:41;98154.91;;;12.14;71.53
9281;BME280;4679;47.966;7.958;2023-02-18T08:28:44;98160.22;;;12.14;71.88
9281;BME280;4679;47.966;7.958;2023-02-18T08:30:49;98168.41;;;12.12;72.30
9281;BME280;4679;47.966;7.958;2023-02-18T08:32:51;98149.78;;;12.12;72.24
9281;BME280;4679;47.966;7.958;2023-02-18T08:34:53;98160.44;;;12.12;71.64
9281;BME280;4679;47.966;7.958;2023-02-18T08:36:55;98158.81;;;12.11;71.67
9281;BME280;4679;47.966;7.958;2023-02-18T08:38:56;98150.25;;;12.09;71.36
9281;BME280;4679;47.966;7.958;2023-02-18T08:41:02;98158.22;;;12.09;71.90
9281;BME280;4679;47.966;7.958;2023-02-18T08:43:04;98153.94;;;12.08;71.50
9281;BME280;4679;47.966;7.958;2023-02-18T08:45:06;98169.69;;;12.10;72.00
9281;BME280;4679;47.966;7.958;2023-02-18T08:47:09;98169.91;;;12.08;71.23
9281;BME280;4679;47.966;7.958;2023-02-18T08:49:11;98165.63;;;12.07;71.22
9281;BME280;4679;47.966;7.958;2023-02-18T08:51:15;98171.19;;;12.06;71.63
9281;BME280;4679;47.966;7.958;2023-02-18T08:53:17;98163.44;;;12.04;71.78
9281;BME280;4679;47.966;7.958;2023-02-18T08:55:19;98162.63;;;12.04;72.08
9281;BME280;4679;47.966;7.958;2023-02-18T08:57:21;98160.78;;;12.04;72.10
9281;BME280;4679;47.966;7.958;2023-02-18T08:59:23;98161.81;;;12.03;71.76
9281;BME280;4679;47.966;7.958;2023-02-18T09:01:24;98168.16;;;12.02;71.96
9281;BME280;4679;47.966;7.958;2023-02-18T09:03:27;98152.00;;;12.04;72.00
9281;BME280;4679;47.966;7.958;2023-02-18T09:05:29;98163.22;;;12.06;71.95
9281;BME280;4679;47.966;7.958;2023-02-18T09:07:31;98162.97;;;12.07;71.78
9281;BME280;4679;47.966;7.958;2023-02-18T09:09:32;98157.63;;;12.07;71.58
9281;BME280;4679;47.966;7.958;2023-02-18T09:11:34;98170.16;;;12.07;71.95
9281;BME280;4679;47.966;7.958;2023-02-18T09:13:36;98172.00;;;12.06;71.40
9281;BME280;4679;47.966;7.958;2023-02-18T09:15:37;98160.31;;;12.07;71.37
9281;BME280;4679;47.966;7.958;2023-02-18T09:17:39;98162.19;;;12.07;71.71
9281;BME280;4679;47.966;7.958;2023-02-18T09:19:42;98173.84;;;12.06;71.76
9281;BME280;4679;47.966;7.958;2023-02-18T09:21:44;98156.84;;;12.07;71.70
9281;BME280;4679;47.966;7.958;2023-02-18T09:23:45;98163.22;;;12.06;72.08
9281;BME280;4679;47.966;7.958;2023-02-18T09:25:47;98170.38;;;12.05;72.14
9281;BME280;4679;47.966;7.958;2023-02-18T09:27:49;98170.38;;;12.05;71.40
9281;BME280;4679;47.966;7.958;2023-02-18T09:29:51;98159.75;;;12.05;71.37
9281;BME280;4679;47.966;7.958;2023-02-18T09:31:54;98166.91;;;12.05;71.59
9281;BME280;4679;47.966;7.958;2023-02-18T09:33:57;98153.59;;;12.05;71.88
9281;BME280;4679;47.966;7.958;2023-02-18T09:36:00;98174.31;;;12.03;71.39
9281;BME280;4679;47.966;7.958;2023-02-18T09:38:02;98165.28;;;12.04;72.17
9281;BME280;4679;47.966;7.958;2023-02-18T09:40:05;98163.44;;;12.04;71.78
9281;BME280;4679;47.966;7.958;2023-02-18T09:42:11;98171.63;;;12.03;72.26
9281;BME280;4679;47.966;7.958;2023-02-18T09:44:17;98166.53;;;12.01;71.67
9281;BME280;4679;47.966;7.958;2023-02-18T09:46:23;98164.09;;;12.00;72.02
9281;BME280;4679;47.966;7.958;2023-02-18T09:48:29;98180.06;;;12.00;72.16
9281;BME280;4679;47.966;7.958;2023-02-18T09:50:32;98170.25;;;12.00;71.66
9281;BME280;4679;47.966;7.958;2023-02-18T09:52:36;98161.44;;;12.00;71.78
9281;BME280;4679;47.966;7.958;2023-02-18T09:54:39;98165.72;;;12.01;71.90
9281;BME280;4679;47.966;7.958;2023-02-18T09:56:42;98154.66;;;12.04;71.67
9281;BME280;4679;47.966;7.958;2023-02-18T09:58:45;98157.41;;;12.09;71.68
9281;BME280;4679;47.966;7.958;2023-02-18T10:00:49;98162.88;;;12.14;71.89
9281;BME280;4679;47.966;7.958;2023-02-18T10:02:54;98149.13;;;12.17;71.71
9281;BME280;4679;47.966;7.958;2023-02-18T10:04:57;98155.03;;;12.19;71.90
9281;BME280;4679;47.966;7.958;2023-02-18T10:07:00;98154.81;;;12.20;71.54
9281;BME280;4679;47.966;7.958;2023-02-18T10:09:13;98151.09;;;12.21;71.57
9281;BME280;4679;47.966;7.958;2023-02-18T10:11:19;98154.31;;;12.23;71.08
9281;BME280;4679;47.966;7.958;2023-02-18T10:13:25;98154.69;;;12.27;71.01
9281;BME280;4679;47.966;7.958;2023-02-18T10:15:30;98144.63;;;12.29;71.01
9281;BME280;4679;47.966;7.958;2023-02-18T10:17:32;98153.19;;;12.31;71.25
9281;BME280;4679;47.966;7.958;2023-02-18T10:19:37;98143.72;;;12.35;71.05
9281;BME280;4679;47.966;7.958;2023-02-18T10:21:40;98148.94;;;12.42;70.99
9281;BME280;4679;47.966;7.958;2023-02-18T10:23:46;98148.59;;;12.50;70.48
9281;BME280;4679;47.966;7.958;2023-02-18T10:25:54;98121.03;;;12.56;69.81
9281;BME280;4679;47.966;7.958;2023-02-18T10:27:57;98122.56;;;12.63;70.49
9281;BME280;4679;47.966;7.958;2023-02-18T10:30:19;98124.63;;;12.73;69.74
9281;BME280;4679;47.966;7.958;2023-02-18T10:32:23;98135.84;;;12.87;69.62
9281;BME280;4679;47.966;7.958;2023-02-18T10:34:35;98113.63;;;12.93;69.46
9281;BME280;4679;47.966;7.958;2023-02-18T10:36:43;98116.72;;;13.01;69.18
9281;BME280;4679;47.966;7.958;2023-02-18T10:39:03;98135.84;;;13.10;69.17
9281;BME280;4679;47.966;7.958;2023-02-18T10:41:16;98112.31;;;13.19;68.63
9281;BME280;4679;47.966;7.958;2023-02-18T10:43:28;98108.72;;;13.25;68.65
9281;BME280;4679;47.966;7.958;2023-02-18T10:45:37;98117.06;;;13.28;68.45
9281;BME280;4679;47.966;7.958;2023-02-18T10:47:50;98098.41;;;13.28;68.33
9281;BME280;4679;47.966;7.958;2023-02-18T10:49:57;98098.72;;;13.32;68.14
9281;BME280;4679;47.966;7.958;2023-02-18T10:52:01;98085.91;;;13.29;68.26
9281;BME280;4679;47.966;7.958;2023-02-18T10:54:06;98103.06;;;13.21;68.50
9281;BME280;4679;47.966;7.958;2023-02-18T10:56:32;98103.88;;;13.22;68.48
9281;BME280;4679;47.966;7.958;2023-02-18T10:58:36;98092.50;;;13.26;68.29
9281;BME280;4679;47.966;7.958;2023-02-18T11:00:43;98098.25;;;13.35;67.90
9281;BME280;4679;47.966;7.958;2023-02-18T11:02:45;98095.47;;;13.42;67.91
9281;BME280;4679;47.966;7.958;2023-02-18T11:05:11;98090.78;;;13.49;67.52
9281;BME280;4679;47.966;7.958;2023-02-18T11:07:20;98084.94;;;13.63;67.04
9281;BME280;4679;47.966;7.958;2023-02-18T11:09:29;98080.28;;;13.70;67.01
9281;BME280;4679;47.966;7.958;2023-02-18T11:11:36;98093.19;;;13.79;66.91
9281;BME280;4679;47.966;7.958;2023-02-18T11:13:39;98101.94;;;13.74;66.71
9281;BME280;4679;47.966;7.958;2023-02-18T11:15:54;98082.19;;;13.75;66.73
9281;BME280;4679;47.966;7.958;2023-02-18T11:17:57;98087.41;;;13.82;66.37
9281;BME280;4679;47.966;7.958;2023-02-18T11:20:23;98095.03;;;13.90;66.11
9281;BME280;4679;47.966;7.958;2023-02-18T11:22:28;98082.47;;;13.90;66.19
9281;BME280;4679;47.966;7.958;2023-02-18T11:24:37;98091.38;;;13.96;66.10
9281;BME280;4679;47.966;7.958;2023-02-18T11:26:41;98091.00;;;14.04;65.94
9281;BME280;4679;47.966;7.958;2023-02-18T11:29:36;98085.72;;;14.09;65.48
9281;BME280;4679;47.966;7.958;2023-02-18T11:31:39;98083.84;;;14.09;65.28
9281;BME280;4679;47.966;7.958;2023-02-18T11:33:43;98081.53;;;14.13;65.31
9281;BME280;4679;47.966;7.958;2023-02-18T11:35:49;98080.00;;;14.17;65.08
9281;BME280;4679;47.966;7.958;2023-02-18T11:37:52;98089.94;;;14.22;64.72
9281;BME280;4679;47.966;7.958;2023-02-18T11:39:54;98092.34;;;14.23;64.60
9281;BME280;4679;47.966;7.958;2023-02-18T11:41:58;98077.63;;;14.21;64.60
9281;BME280;4679;47.966;7.958;2023-02-18T11:44:02;98064.69;;;14.29;64.45
9281;BME280;4679;47.966;7.958;2023-02-18T11:46:12;98075.16;;;14.48;64.01
9281;BME280;4679;47.966;7.958;2023-02-18T11:48:15;98066.47;;;14.57;63.36
9281;BME280;4679;47.966;7.958;2023-02-18T11:50:21;98063.31;;;14.60;63.49
9281;BME280;4679;47.966;7.958;2023-02-18T11:52:25;98066.47;;;14.57;63.77
9281;BME280;4679;47.966;7.958;2023-02-18T11:54:28;98072.81;;;14.51;63.62
9281;BME280;4679;47.966;7.958;2023-02-18T11:56:32;98071.69;;;14.47;64.17
9281;BME280;4679;47.966;7.958;2023-02-18T11:58:37;98069.56;;;14.49;63.42
9281;BME280;4679;47.966;7.958;2023-02-18T12:00:41;98048.69;;;14.46;63.44
9281;BME280;4679;47.966;7.958;2023-02-18T12:02:46;98054.75;;;14.41;63.16
9281;BME280;4679;47.966;7.958;2023-02-18T12:04:51;98054.34;;;14.50;63.13
9281;BME280;4679;47.966;7.958;2023-02-18T12:07:07;98068.81;;;14.54;63.14
9281;BME280;4679;47.966;7.958;2023-02-18T12:09:19;98045.50;;;14.66;62.79
9281;BME280;4679;47.966;7.958;2023-02-18T12:11:29;98041.59;;;14.73;62.57
9281;BME280;4679;47.966;7.958;2023-02-18T12:13:34;98054.69;;;14.75;62.67
9281;BME280;4679;47.966;7.958;2023-02-18T12:15:47;98046.03;;;14.68;62.87
9281;BME280;4679;47.966;7.958;2023-02-18T12:18:07;98047.53;;;14.59;63.15
9281;BME280;4679;47.966;7.958;2023-02-18T12:20:25;98040.41;;;14.64;62.45
9281;BME280;4679;47.966;7.958;2023-02-18T12:22:34;98034.25;;;14.86;62.17
9281;BME280;4679;47.966;7.958;2023-02-18T12:24:49;98031.78;;;15.01;62.21
9281;BME280;4679;47.966;7.958;2023-02-18T12:27:03;98002.50;;;14.89;61.86
9281;BME280;4679;47.966;7.958;2023-02-18T12:29:26;98041.38;;;14.97;61.92
9281;BME280;4679;47.966;7.958;2023-02-18T12:31:48;98037.44;;;15.04;61.52
9281;BME280;4679;47.966;7.958;2023-02-18T12:34:04;98024.97;;;15.15;61.30
9281;BME280;4679;47.966;7.958;2023-02-18T12:36:16;98029.91;;;15.23;60.89
9281;BME280;4679;47.966;7.958;2023-02-18T12:38:43;98032.56;;;15.01;61.54
9281;BME280;4679;47.966;7.958;2023-02-18T12:40:58;98018.66;;;15.21;61.03
9281;BME280;4679;47.966;7.958;2023-02-18T12:43:11;98004.44;;;15.42;60.58
9281;BME280;4679;47.966;7.958;2023-02-18T12:45:37;98025.88;;;15.47;61.02
9281;BME280;4679;47.966;7.958;2023-02-18T12:47:55;98022.13;;;15.70;59.57
9281;BME280;4679;47.966;7.958;2023-02-18T12:50:21;98026.19;;;15.78;59.54
9281;BME280;4679;47.966;7.958;2023-02-18T12:52:31;98011.00;;;15.83;60.03
9281;BME280;4679;47.966;7.958;2023-02-18T12:54:48;98027.00;;;16.10;59.30
9281;BME280;4679;47.966;7.958;2023-02-18T12:57:06;98007.81;;;16.24;59.24
9281;BME280;4679;47.966;7.958;2023-02-18T12:59:29;98013.00;;;16.40;58.24
9281;BME280;4679;47.966;7.958;2023-02-18T13:01:44;98010.41;;;16.56;58.69
9281;BME280;4679;47.966;7.958;2023-02-18T13:06:51;98010.56;;;16.34;58.68
9281;BME280;4679;47.966;7.958;2023-02-18T13:09:04;98013.94;;;16.19;59.16
9281;BME280;4679;47.966;7.958;2023-02-18T13:11:19;98000.16;;;16.00;59.46
9281;BME280;4679;47.966;7.958;2023-02-18T13:13:24;98015.03;;;15.86;59.52
9281;BME280;4679;47.966;7.958;2023-02-18T13:15:31;98005.00;;;15.71;59.34
9281;BME280;4679;47.966;7.958;2023-02-18T13:17:37;98006.66;;;15.51;59.89
9281;BME280;4679;47.966;7.958;2023-02-18T13:19:45;98007.19;;;15.53;59.84
9281;BME280;4679;47.966;7.958;2023-02-18T13:21:51;98020.59;;;15.53;59.38
9281;BME280;4679;47.966;7.958;2023-02-18T13:23:55;98033.19;;;15.30;59.83
9281;BME280;4679;47.966;7.958;2023-02-18T13:26:00;98010.88;;;14.98;60.82
9281;BME280;4679;47.966;7.958;2023-02-18T13:28:06;98011.41;;;14.95;60.34
9281;BME280;4679;47.966;7.958;2023-02-18T13:30:19;98005.91;;;14.85;60.64
9281;BME280;4679;47.966;7.958;2023-02-18T13:32:27;97997.84;;;14.80;61.21
9281;BME280;4679;47.966;7.958;2023-02-18T13:34:35;98004.75;;;14.75;60.78
9281;BME280;4679;47.966;7.958;2023-02-18T13:36:56;97985.16;;;14.70;60.75
9281;BME280;4679;47.966;7.958;2023-02-18T13:39:04;97988.47;;;14.77;61.05
9281;BME280;4679;47.966;7.958;2023-02-18T13:41:07;97985.59;;;14.62;61.18
9281;BME280;4679;47.966;7.958;2023-02-18T13:43:17;97982.69;;;14.63;60.69
9281;BME280;4679;47.966;7.958;2023-02-18T13:45:28;97986.09;;;14.59;60.73
9281;BME280;4679;47.966;7.958;2023-02-18T13:47:40;97974.69;;;14.63;61.06
9281;BME280;4679;47.966;7.958;2023-02-18T13:49:42;97977.34;;;14.85;60.15
9281;BME280;4679;47.966;7.958;2023-02-18T13:51:45;97973.44;;;14.93;60.36
9281;BME280;4679;47.966;7.958;2023-02-18T13:53:50;97983.63;;;14.74;60.43
9281;BME280;4679;47.966;7.958;2023-02-18T13:55:56;97980.59;;;14.65;60.32
9281;BME280;4679;47.966;7.958;2023-02-18T13:57:59;97979.00;;;14.69;61.07
9281;BME280;4679;47.966;7.958;2023-02-18T14:00:03;97976.91;;;14.71;60.10
9281;BME280;4679;47.966;7.958;2023-02-18T14:02:30;97972.63;;;14.70;60.56
9281;BME280;4679;47.966;7.958;2023-02-18T14:04:47;97977.47;;;14.73;60.22
9281;BME280;4679;47.966;7.958;2023-02-18T14:07:16;97976.06;;;14.66;60.73
9281;BME280;4679;47.966;7.958;2023-02-18T14:09:40;97974.44;;;14.65;60.87
9281;BME280;4679;47.966;7.958;2023-02-18T14:11:46;97964.81;;;14.64;60.60
9281;BME280;4679;47.966;7.958;2023-02-18T14:13:52;97964.41;;;14.55;60.50
9281;BME280;4679;47.966;7.958;2023-02-18T14:15:57;97962.19;;;14.47;61.01
9281;BME280;4679;47.966;7.958;2023-02-18T14:18:09;97960.94;;;14.38;60.74
9281;BME280;4679;47.966;7.958;2023-02-18T14:20:45;97954.00;;;14.37;60.97
9281;BME280;4679;47.966;7.958;2023-02-18T14:22:48;97944.16;;;14.59;60.28
9281;BME280;4679;47.966;7.958;2023-02-18T14:24:58;97955.19;;;14.63;60.02
9281;BME280;4679;47.966;7.958;2023-02-18T14:27:08;97950.81;;;14.57;60.68
9281;BME280;4679;47.966;7.958;2023-02-18T14:29:23;97951.19;;;14.43;60.99
9281;BME280;4679;47.966;7.958;2023-02-18T14:31:32;97942.22;;;14.33;60.86
9281;BME280;4679;47.966;7.958;2023-02-18T14:33:35;97943.19;;;14.27;61.08
9281;BME280;4679;47.966;7.958;2023-02-18T14:35:39;97953.63;;;14.28;61.00
9281;BME280;4679;47.966;7.958;2023-02-18T14:37:59;97947.91;;;14.20;60.94
9281;BME280;4679;47.966;7.958;2023-02-18T14:40:24;97954.22;;;14.14;60.99
9281;BME280;4679;47.966;7.958;2023-02-18T14:42:34;97939.41;;;14.06;61.46
9281;BME280;4679;47.966;7.958;2023-02-18T14:44:52;97939.38;;;14.01;61.60
9281;BME280;4679;47.966;7.958;2023-02-18T14:47:09;97936.38;;;13.97;61.24
9281;BME280;4679;47.966;7.958;2023-02-18T14:49:25;97947.53;;;13.94;61.50
9281;BME280;4679;47.966;7.958;2023-02-18T14:51:34;97939.94;;;13.86;61.41
9281;BME280;4679;47.966;7.958;2023-02-18T14:53:41;97935.41;;;13.87;61.17
9281;BME280;4679;47.966;7.958;2023-02-18T14:55:46;97932.75;;;13.87;61.20
9281;BME280;4679;47.966;7.958;2023-02-18T14:57:52;97923.94;;;13.86;61.11
9281;BME280;4679;47.966;7.958;2023-02-18T14:59:56;97934.03;;;13.84;61.40
9281;BME280;4679;47.966;7.958;2023-02-18T15:01:59;97924.66;;;13.82;61.20
9281;BME280;4679;47.966;7.958;2023-02-18T15:04:02;97928.06;;;13.77;61.39
9281;BME280;4679;47.966;7.958;2023-02-18T15:06:24;97930.72;;;13.77;61.41
9281;BME280;4679;47.966;7.958;2023-02-18T15:08:25;97926.13;;;13.72;61.42
9281;BME280;4679;47.966;7.958;2023-02-18T15:10:34;97933.56;;;13.70;61.56
9281;BME280;4679;47.966;7.958;2023-02-18T15:12:38;97945.06;;;13.71;61.41
9281;BME280;4679;47.966;7.958;2023-02-18T15:14:41;97941.56;;;13.70;61.52
9281;BME280;4679;47.966;7.958;2023-02-18T15:16:44;97932.44;;;13.66;61.36
9281;BME280;4679;47.966;7.958;2023-02-18T15:18:50;97926.84;;;13.68;61.64
9281;BME280;4679;47.966;7.958;2023-02-18T15:20:54;97931.72;;;13.71;61.63
9281;BME280;4679;47.966;7.958;2023-02-18T15:22:56;97935.19;;;13.71;61.43
9281;BME280;4679;47.966;7.958;2023-02-18T15:24:57;97934.63;;;13.69;61.44
9281;BME280;4679;47.966;7.958;2023-02-18T15:27:02;97933.47;;;13.65;61.47
9281;BME280;4679;47.966;7.958;2023-02-18T15:29:14;97927.81;;;13.62;61.42
9281;BME280;4679;47.966;7.958;2023-02-18T15:31:16;97930.25;;;13.63;61.61
9281;BME280;4679;47.966;7.958;2023-02-18T15:33:20;97931.88;;;13.64;61.51
9281;BME280;4679;47.966;7.958;2023-02-18T15:35:25;97923.81;;;13.59;61.51
9281;BME280;4679;47.966;7.958;2023-02-18T15:37:30;97929.84;;;13.55;61.80
9281;BME280;4679;47.966;7.958;2023-02-18T15:39:32;97915.94;;;13.53;61.60
9281;BME280;4679;47.966;7.958;2023-02-18T15:41:35;97922.34;;;13.52;61.64
9281;BME280;4679;47.966;7.958;2023-02-18T15:43:36;97916.44;;;13.50;61.71
9281;BME280;4679;47.966;7.958;2023-02-18T15:45:41;97914.00;;;13.48;61.77
9281;BME280;4679;47.966;7.958;2023-02-18T15:47:46;97918.53;;;13.48;61.73
9281;BME280;4679;47.966;7.958;2023-02-18T15:49:50;97917.97;;;13.46;61.78
9281;BME280;4679;47.966;7.958;2023-02-18T15:51:57;97909.66;;;13.42;61.91
9281;BME280;4679;47.966;7.958;2023-02-18T15:54:01;97910.22;;;13.44;61.46
9281;BME280;4679;47.966;7.958;2023-02-18T15:56:06;97915.00;;;13.42;61.46
9281;BME280;4679;47.966;7.958;2023-02-18T15:58:13;97908.03;;;13.41;61.73
9281;BME280;4679;47.966;7.958;2023-02-18T16:00:19;97920.00;;;13.38;61.73
9281;BME280;4679;47.966;7.958;2023-02-18T16:02:23;97911.41;;;13.36;61.58
9281;BME280;4679;47.966;7.958;2023-02-18T16:04:31;97916.19;;;13.34;61.52
9281;BME280;4679;47.966;7.958;2023-02-18T16:06:36;97910.50;;;13.31;61.88
9281;BME280;4679;47.966;7.958;2023-02-18T16:08:38;97911.56;;;13.30;61.76
9281;BME280;4679;47.966;7.958;2023-02-18T16:10:44;97913.94;;;13.26;61.66
9281;BME280;4679;47.966;7.958;2023-02-18T16:12:49;97908.25;;;13.23;61.87
9281;BME280;4679;47.966;7.958;2023-02-18T16:14:53;97898.88;;;13.20;61.88
9281;BME280;4679;47.966;7.958;2023-02-18T16:17:04;97897.28;;;13.19;61.96
9281;BME280;4679;47.966;7.958;2023-02-18T16:19:22;97916.41;;;13.16;61.72
9281;BME280;4679;47.966;7.958;2023-02-18T16:21:30;97900.66;;;13.15;61.78
9281;BME280;4679;47.966;7.958;2023-02-18T16:23:36;97901.94;;;13.12;61.90
9281;BME280;4679;47.966;7.958;2023-02-18T16:25:43;97904.25;;;13.09;62.13
9281;BME280;4679;47.966;7.958;2023-02-18T16:27:48;97900.69;;;13.03;62.31
9281;BME280;4679;47.966;7.958;2023-02-18T16:29:50;97888.88;;;12.99;62.04
9281;BME280;4679;47.966;7.958;2023-02-18T16:31:52;97892.84;;;12.96;62.44
9281;BME280;4679;47.966;7.958;2023-02-18T16:33:54;97901.09;;;12.95;62.49
9281;BME280;4679;47.966;7.958;2023-02-18T16:35:57;97881.06;;;12.92;61.83
9281;BME280;4679;47.966;7.958;2023-02-18T16:37:58;97888.25;;;12.92;62.23
9281;BME280;4679;47.966;7.958;2023-02-18T16:40:00;97880.97;;;12.87;62.40
9281;BME280;4679;47.966;7.958;2023-02-18T16:42:02;97879.56;;;12.85;62.46
9281;BME280;4679;47.966;7.958;2023-02-18T16:44:11;97881.34;;;12.79;62.36
9281;BME280;4679;47.966;7.958;2023-02-18T16:46:15;97880.78;;;12.77;62.22
9281;BME280;4679;47.966;7.958;2023-02-18T16:48:19;97887.97;;;12.77;62.60
9281;BME280;4679;47.966;7.958;2023-02-18T16:50:22;97886.56;;;12.74;62.36
9281;BME280;4679;47.966;7.958;2023-02-18T16:52:25;97880.34;;;12.68;62.02
9281;BME280;4679;47.966;7.958;2023-02-18T16:54:26;97884.31;;;12.66;62.18
9281;BME280;4679;47.966;7.958;2023-02-18T16:56:30;97889.88;;;12.64;62.36
9281;BME280;4679;47.966;7.958;2023-02-18T16:58:32;97890.09;;;12.63;62.84
9281;BME280;4679;47.966;7.958;2023-02-18T17:00:34;97894.84;;;12.61;62.45
9281;BME280;4679;47.966;7.958;2023-02-18T17:02:36;97896.72;;;12.60;62.26
9281;BME280;4679;47.966;7.958;2023-02-18T17:04:37;97887.91;;;12.60;62.86
9281;BME280;4679;47.966;7.958;2023-02-18T17:06:40;97902.50;;;12.57;62.45
9281;BME280;4679;47.966;7.958;2023-02-18T17:08:43;97901.47;;;12.58;62.55
9281;BME280;4679;47.966;7.958;2023-02-18T17:10:45;97900.41;;;12.59;62.01
9281;BME280;4679;47.966;7.958;2023-02-18T17:12:47;97906.19;;;12.56;62.75
9281;BME280;4679;47.966;7.958;2023-02-18T17:14:49;97905.41;;;12.56;62.45
9281;BME280;4679;47.966;7.958;2023-02-18T17:16:53;97903.53;;;12.56;62.36
9281;BME280;4679;47.966;7.958;2023-02-18T17:18:54;97912.72;;;12.49;62.13
9281;BME280;4679;47.966;7.958;2023-02-18T17:20:56;97898.69;;;12.53;62.54
9281;BME280;4679;47.966;7.958;2023-02-18T17:22:58;97904.50;;;12.50;62.54
9281;BME280;4679;47.966;7.958;2023-02-18T17:25:01;97905.56;;;12.49;62.85
9281;BME280;4679;47.966;7.958;2023-02-18T17:27:03;97907.06;;;12.45;62.52
9281;BME280;4679;47.966;7.958;2023-02-18T17:29:04;97907.28;;;12.44;62.59
9281;BME280;4679;47.966;7.958;2023-02-18T17:31:07;97912.25;;;12.40;62.93
9281;BME280;4679;47.966;7.958;2023-02-18T17:33:14;97918.63;;;12.39;62.88
9281;BME280;4679;47.966;7.958;2023-02-18T17:35:19;97922.09;;;12.40;63.18
9281;BME280;4679;47.966;7.958;2023-02-18T17:37:21;97922.59;;;12.37;63.42
9281;BME280;4679;47.966;7.958;2023-02-18T17:39:23;97922.59;;;12.37;62.91
9281;BME280;4679;47.966;7.958;2023-02-18T17:41:26;97923.06;;;12.33;63.44
9281;BME280;4679;47.966;7.958;2023-02-18T17:43:28;97930.81;;;12.35;63.11
9281;BME280;4679;47.966;7.958;2023-02-18T17:45:32;97927.56;;;12.33;63.37
9281;BME280;4679;47.966;7.958;2023-02-18T17:47:34;97934.50;;;12.34;63.55
9281;BME280;4679;47.966;7.958;2023-02-18T17:49:36;97933.47;;;12.35;63.38
9281;BME280;4679;47.966;7.958;2023-02-18T17:51:38;97939.84;;;12.34;63.08
9281;BME280;4679;47.966;7.958;2023-02-18T17:53:40;97937.19;;;12.34;63.51
9281;BME280;4679;47.966;7.958;2023-02-18T17:55:42;97930.69;;;12.30;63.12
9281;BME280;4679;47.966;7.958;2023-02-18T17:57:46;97942.97;;;12.31;63.06
9281;BME280;4679;47.966;7.958;2023-02-18T17:59:48;97940.88;;;12.33;63.50
9281;BME280;4679;47.966;7.958;2023-02-18T18:01:49;97934.97;;;12.31;63.19
9281;BME280;4679;47.966;7.958;2023-02-18T18:03:51;97939.94;;;12.27;63.29
9281;BME280;4679;47.966;7.958;2023-02-18T18:05:53;97940.09;;;12.21;63.56
9281;BME280;4679;47.966;7.958;2023-02-18T18:07:57;97934.78;;;12.21;63.20
9281;BME280;4679;47.966;7.958;2023-02-18T18:09:58;97938.78;;;12.23;63.24
9281;BME280;4679;47.966;7.958;2023-02-18T18:12:00;97936.94;;;12.24;63.59
9281;BME280;4679;47.966;7.958;2023-02-18T18:14:03;97927.09;;;12.24;63.76
9281;BME280;4679;47.966;7.958;2023-02-18T18:16:05;97938.56;;;12.25;63.67
9281;BME280;4679;47.966;7.958;2023-02-18T18:18:09;97935.31;;;12.23;64.06
9281;BME280;4679;47.966;7.958;2023-02-18T18:20:11;97926.22;;;12.19;63.54
9281;BME280;4679;47.966;7.958;2023-02-18T18:22:13;97925.63;;;12.17;64.19
9281;BME280;4679;47.966;7.958;2023-02-18T18:24:14;97934.66;;;12.16;64.17
9281;BME280;4679;47.966;7.958;2023-02-18T18:26:16;97942.88;;;12.14;64.11
9281;BME280;4679;47.966;7.958;2023-02-18T18:28:18;97933.84;;;12.15;64.21
9281;BME280;4679;47.966;7.958;2023-02-18T18:30:23;97933.25;;;12.13;63.80
9281;BME280;4679;47.966;7.958;2023-02-18T18:32:25;97927.34;;;12.11;63.64
9281;BME280;4679;47.966;7.958;2023-02-18T18:34:27;97927.81;;;12.08;63.83
9281;BME280;4679;47.966;7.958;2023-02-18T18:36:28;97931.53;;;12.07;64.00
9281;BME280;4679;47.966;7.958;2023-02-18T18:38:30;97922.75;;;12.07;64.70
9281;BME280;4679;47.966;7.958;2023-02-18T18:40:32;97935.00;;;12.08;64.63
9281;BME280;4679;47.966;7.958;2023-02-18T18:42:34;97935.00;;;12.08;64.11
9281;BME280;4679;47.966;7.958;2023-02-18T18:44:36;97937.66;;;12.08;64.76
9281;BME280;4679;47.966;7.958;2023-02-18T18:46:39;97929.94;;;12.06;64.33
9281;BME280;4679;47.966;7.958;2023-02-18T18:48:40;97932.81;;;12.05;64.41
9281;BME280;4679;47.966;7.958;2023-02-18T18:50:42;97937.34;;;12.04;64.51
9281;BME280;4679;47.966;7.958;2023-02-18T18:52:45;97937.56;;;12.03;64.55
9281;BME280;4679;47.966;7.958;2023-02-18T18:54:46;97934.91;;;12.03;64.28